createdAt,value
2018-10-07T00:01:51.391Z,16.07
2018-10-07T00:04:21.920Z,16.04
2018-10-07T00:06:52.674Z,15.98
2018-10-07T00:09:23.598Z,15.89
2018-10-07T00:11:54.429Z,15.85
2018-10-07T00:14:25.662Z,15.87
2018-10-07T00:16:56.491Z,15.74
2018-10-07T00:19:27.919Z,15.85
2018-10-07T00:21:58.637Z,15.74
2018-10-07T00:24:30.480Z,15.69
2018-10-07T00:27:00.318Z,15.58
2018-10-07T00:29:31.872Z,15.38
2018-10-07T00:32:07.328Z,14.06
2018-10-07T00:34:37.442Z,15.24
2018-10-07T00:37:07.248Z,15.30
2018-10-07T00:39:37.539Z,15.36
2018-10-07T00:42:07.588Z,15.38
2018-10-07T00:44:37.521Z,15.30
2018-10-07T00:47:08.672Z,15.21
2018-10-07T00:49:39.518Z,15.06
2018-10-07T00:52:10.470Z,14.74
2018-10-07T00:54:40.261Z,14.57
2018-10-07T00:57:11.684Z,14.58
2018-10-07T00:59:42.496Z,14.47
2018-10-07T01:02:13.490Z,14.58
2018-10-07T01:04:44.493Z,14.68
2018-10-07T01:07:15.773Z,14.73
2018-10-07T01:09:46.764Z,14.77
2018-10-07T01:12:17.680Z,14.81
2018-10-07T01:14:48.466Z,14.82
2018-10-07T01:17:19.712Z,14.83
2018-10-07T01:19:50.492Z,14.82
2018-10-07T01:22:21.960Z,14.80
2018-10-07T01:24:52.618Z,14.77
2018-10-07T01:27:23.514Z,14.74
2018-10-07T01:29:54.435Z,14.72
2018-10-07T01:32:25.460Z,14.69
2018-10-07T01:34:56.345Z,14.66
2018-10-07T01:37:27.752Z,14.63
2018-10-07T01:39:58.558Z,14.61
2018-10-07T01:42:29.416Z,14.57
2018-10-07T01:45:00.639Z,14.55
2018-10-07T01:47:31.518Z,14.51
2018-10-07T01:50:02.304Z,14.47
2018-10-07T01:52:33.791Z,14.43
2018-10-07T01:55:05.713Z,14.39
2018-10-07T01:57:35.657Z,14.33
2018-10-07T02:00:06.509Z,14.32
2018-10-07T02:02:37.661Z,14.29
2018-10-07T02:05:08.884Z,14.07
2018-10-07T02:07:39.661Z,14.18
2018-10-07T02:10:10.449Z,14.14
2018-10-07T02:12:41.580Z,14.11
2018-10-07T02:15:12.606Z,14.04
2018-10-07T02:17:43.460Z,14.03
2018-10-07T02:20:14.733Z,14.00
2018-10-07T02:22:46.009Z,14.00
2018-10-07T02:25:16.670Z,13.98
2018-10-07T02:27:47.726Z,13.95
2018-10-07T02:30:18.973Z,13.93
2018-10-07T02:32:49.750Z,13.90
2018-10-07T02:35:23.803Z,13.86
2018-10-07T02:37:54.073Z,13.87
2018-10-07T02:40:24.314Z,13.74
2018-10-07T02:42:54.313Z,13.65
2018-10-07T02:45:24.325Z,13.63
2018-10-07T02:47:55.917Z,13.61
2018-10-07T02:50:27.177Z,13.57
2018-10-07T02:52:58.409Z,13.54
2018-10-07T02:55:31.260Z,13.52
2018-10-07T02:58:04.240Z,13.47
2018-10-07T03:00:34.206Z,13.43
2018-10-07T03:03:04.299Z,13.41
2018-10-07T03:05:34.337Z,13.37
2018-10-07T03:08:04.352Z,13.34
2018-10-07T03:10:34.634Z,13.32
2018-10-07T03:13:05.572Z,13.33
2018-10-07T03:15:36.489Z,13.23
2018-10-07T03:18:07.523Z,13.30
2018-10-07T03:20:38.525Z,13.27
2018-10-07T03:23:09.297Z,13.26
2018-10-07T03:25:40.769Z,13.23
2018-10-07T03:28:11.550Z,13.21
2018-10-07T03:30:42.558Z,13.18
2018-10-07T03:33:13.317Z,13.14
2018-10-07T03:35:44.699Z,13.10
2018-10-07T03:38:15.460Z,13.07
2018-10-07T03:40:46.848Z,13.05
2018-10-07T03:43:17.637Z,12.95
2018-10-07T03:45:48.509Z,13.00
2018-10-07T03:48:19.388Z,12.97
2018-10-07T03:50:50.740Z,12.93
2018-10-07T03:53:21.512Z,12.90
2018-10-07T03:55:52.513Z,12.85
2018-10-07T03:58:23.349Z,12.81
2018-10-07T04:00:55.005Z,12.78
2018-10-07T04:03:25.619Z,12.72
2018-10-07T04:05:56.818Z,12.68
2018-10-07T04:08:27.657Z,12.65
2018-10-07T04:10:58.609Z,12.60
2018-10-07T04:13:29.344Z,12.56
2018-10-07T04:16:00.722Z,12.51
2018-10-07T04:18:31.508Z,12.48
2018-10-07T04:21:02.446Z,12.46
2018-10-07T04:23:33.723Z,12.44
2018-10-07T04:26:04.750Z,12.41
2018-10-07T04:28:35.537Z,12.39
2018-10-07T04:31:06.454Z,12.36
2018-10-07T04:33:37.759Z,12.33
2018-10-07T04:36:08.693Z,12.29
2018-10-07T04:38:39.929Z,12.27
2018-10-07T04:41:10.892Z,12.23
2018-10-07T04:43:41.541Z,12.12
2018-10-07T04:46:12.990Z,12.17
2018-10-07T04:48:43.544Z,12.15
2018-10-07T04:51:14.465Z,12.12
2018-10-07T04:53:45.297Z,12.09
2018-10-07T04:56:16.870Z,12.06
2018-10-07T04:58:47.582Z,12.03
2018-10-07T05:01:18.740Z,12.00
2018-10-07T05:03:49.860Z,12.08
2018-10-07T05:06:21.548Z,12.04
2018-10-07T05:08:51.606Z,11.99
2018-10-07T05:11:22.807Z,11.95
2018-10-07T05:13:55.535Z,11.91
2018-10-07T05:16:46.934Z,11.87
2018-10-07T05:19:17.345Z,11.82
2018-10-07T05:21:47.637Z,11.81
2018-10-07T05:29:09.619Z,11.75
2018-10-07T05:31:39.471Z,11.75
2018-10-07T05:34:09.341Z,11.74
2018-10-07T05:36:39.267Z,11.72
2018-10-07T05:39:10.770Z,11.72
2018-10-07T05:41:40.690Z,11.71
2018-10-07T05:44:10.562Z,11.73
2018-10-07T05:46:40.507Z,11.58
2018-10-07T05:49:10.348Z,11.62
2018-10-07T05:51:40.197Z,11.67
2018-10-07T05:54:10.581Z,11.73
2018-10-07T05:56:40.395Z,11.79
2018-10-07T05:59:10.999Z,11.83
2018-10-07T06:01:43.274Z,11.72
2018-10-07T06:04:29.852Z,11.94
2018-10-07T06:07:02.944Z,11.98
2018-10-07T06:09:35.939Z,12.01
2018-10-07T06:12:06.026Z,12.03
2018-10-07T06:14:46.490Z,12.05
2018-10-07T06:17:16.768Z,12.07
2018-10-07T06:19:46.862Z,12.11
2018-10-07T06:22:16.790Z,12.17
2018-10-07T06:24:46.786Z,12.22
2018-10-07T06:27:16.663Z,12.30
2018-10-07T06:29:46.742Z,12.40
2018-10-07T06:32:16.908Z,12.54
2018-10-07T06:34:46.781Z,12.64
2018-10-07T06:37:16.731Z,12.73
2018-10-07T06:39:46.759Z,12.89
2018-10-07T06:42:16.632Z,13.09
2018-10-07T06:44:47.870Z,13.23
2018-10-07T06:47:17.732Z,13.40
2018-10-07T06:49:47.814Z,13.59
2018-10-07T06:52:18.105Z,13.80
2018-10-07T06:54:48.435Z,13.96
2018-10-07T06:57:18.925Z,14.06
2018-10-07T06:59:48.855Z,14.17
2018-10-07T07:02:19.597Z,14.23
2018-10-07T07:04:49.742Z,14.30
2018-10-07T07:07:19.714Z,14.35
2018-10-07T07:09:49.673Z,14.39
2018-10-07T07:12:19.485Z,14.47
2018-10-07T07:14:49.419Z,14.55
2018-10-07T07:17:19.596Z,14.62
2018-10-07T07:19:49.513Z,14.69
2018-10-07T07:22:19.608Z,14.80
2018-10-07T07:24:49.442Z,14.91
2018-10-07T07:27:19.445Z,14.97
2018-10-07T07:29:49.290Z,15.02
2018-10-07T07:32:19.102Z,15.12
2018-10-07T07:34:49.540Z,15.23
2018-10-07T07:37:19.361Z,15.30
2018-10-07T07:39:49.906Z,15.36
2018-10-07T07:42:20.774Z,15.38
2018-10-07T07:44:51.690Z,15.41
2018-10-07T07:47:25.012Z,15.55
2018-10-07T07:49:55.889Z,15.71
2018-10-07T07:52:25.741Z,15.86
2018-10-07T07:54:56.375Z,16.02
2018-10-07T07:57:26.698Z,16.14
2018-10-07T07:59:57.592Z,16.30
2018-10-07T08:02:28.885Z,16.45
2018-10-07T08:05:01.537Z,16.63
2018-10-07T08:07:33.049Z,16.76
2018-10-07T08:10:03.603Z,16.94
2018-10-07T08:12:33.476Z,17.10
2018-10-07T08:15:03.521Z,17.33
2018-10-07T08:17:34.871Z,17.47
2018-10-07T08:20:05.795Z,17.63
2018-10-07T08:22:37.192Z,17.72
2018-10-07T08:25:07.829Z,17.92
2018-10-07T08:27:38.858Z,18.08
2018-10-07T08:30:10.004Z,18.25
2018-10-07T08:32:40.968Z,18.41
2018-10-07T08:35:11.866Z,18.57
2018-10-07T08:37:42.870Z,18.68
2018-10-07T08:40:13.764Z,18.80
2018-10-07T08:42:44.759Z,18.95
2018-10-07T08:45:15.906Z,19.22
2018-10-07T08:47:46.957Z,19.40
2018-10-07T08:50:17.719Z,19.43
2018-10-07T08:52:48.674Z,19.42
2018-10-07T08:55:19.472Z,19.41
2018-10-07T08:57:50.489Z,19.52
2018-10-07T09:00:21.381Z,19.68
2018-10-07T09:02:52.397Z,19.84
2018-10-07T09:05:23.770Z,20.03
2018-10-07T09:07:54.871Z,20.24
2018-10-07T09:10:25.702Z,20.42
2018-10-07T09:12:56.857Z,20.62
2018-10-07T09:15:27.815Z,20.71
2018-10-07T09:17:58.832Z,20.67
2018-10-07T09:20:29.542Z,20.62
2018-10-07T09:23:00.757Z,20.59
2018-10-07T09:25:31.529Z,20.65
2018-10-07T09:28:02.805Z,20.67
2018-10-07T09:30:34.078Z,20.80
2018-10-07T09:33:04.729Z,20.89
2018-10-07T09:35:35.554Z,21.04
2018-10-07T09:38:07.164Z,21.07
2018-10-07T09:40:37.711Z,21.04
2018-10-07T09:43:08.730Z,21.10
2018-10-07T09:45:39.534Z,21.20
2018-10-07T09:48:10.788Z,21.32
2018-10-07T09:50:41.573Z,21.37
2018-10-07T09:53:12.683Z,21.45
2018-10-07T09:55:43.577Z,21.53
2018-10-07T09:58:14.553Z,21.56
2018-10-07T10:00:45.365Z,21.50
2018-10-07T10:03:16.830Z,21.40
2018-10-07T10:05:47.666Z,21.43
2018-10-07T10:08:18.850Z,21.48
2018-10-07T10:10:49.783Z,21.51
2018-10-07T10:13:20.691Z,21.57
2018-10-07T10:15:51.547Z,21.61
2018-10-07T10:18:27.810Z,21.60
2018-10-07T10:21:02.332Z,21.58
2018-10-07T10:24:47.716Z,21.61
2018-10-07T10:28:53.853Z,21.67
2018-10-07T10:31:36.709Z,21.79
2018-10-07T10:35:13.309Z,22.01
2018-10-07T10:38:48.888Z,22.31
2018-10-07T10:41:24.863Z,22.61
2018-10-07T10:44:00.662Z,22.75
2018-10-07T10:46:39.013Z,22.93
2018-10-07T10:49:16.360Z,23.06
2018-10-07T10:51:53.008Z,23.22
2018-10-07T10:54:30.203Z,23.38
2018-10-07T10:57:09.037Z,23.56
2018-10-07T11:00:15.912Z,23.59
2018-10-07T11:04:58.696Z,23.74
2018-10-07T11:07:37.221Z,24.01
2018-10-07T11:10:23.065Z,24.07
2018-10-07T11:14:10.342Z,24.13
2018-10-07T11:16:56.052Z,24.19
2018-10-07T11:19:30.024Z,24.45
2018-10-07T11:22:11.253Z,24.69
2018-10-07T11:24:46.531Z,24.82
2018-10-07T11:27:41.232Z,24.98
2018-10-07T11:31:22.660Z,24.99
2018-10-07T11:34:00.751Z,25.29
2018-10-07T11:36:45.819Z,25.29
2018-10-07T11:39:26.562Z,25.51
2018-10-07T11:42:04.543Z,25.51
2018-10-07T11:44:53.409Z,25.52
2018-10-07T11:47:32.071Z,25.78
2018-10-07T11:50:07.008Z,25.90
2018-10-07T11:52:43.569Z,25.92
2018-10-07T11:55:12.872Z,25.82
2018-10-07T11:57:43.275Z,25.95
2018-10-07T12:00:13.443Z,26.16
2018-10-07T12:02:43.692Z,26.18
2018-10-07T12:05:13.802Z,26.26
2018-10-07T12:07:43.893Z,25.97
2018-10-07T12:10:14.077Z,25.87
2018-10-07T12:12:43.998Z,25.73
2018-10-07T12:15:14.258Z,25.65
2018-10-07T12:17:44.217Z,25.60
2018-10-07T12:20:14.001Z,25.70
2018-10-07T12:22:43.790Z,25.97
2018-10-07T12:25:13.747Z,26.13
2018-10-07T12:27:43.710Z,25.89
2018-10-07T12:30:13.862Z,25.86
2018-10-07T12:32:43.685Z,25.70
2018-10-07T12:35:13.836Z,25.47
2018-10-07T12:37:48.744Z,25.78
2018-10-07T12:40:18.937Z,25.73
2018-10-07T12:42:48.773Z,25.71
2018-10-07T12:45:18.758Z,25.33
2018-10-07T12:47:48.637Z,25.26
2018-10-07T12:50:18.640Z,25.13
2018-10-07T12:52:49.256Z,25.39
2018-10-07T12:55:19.061Z,25.54
2018-10-07T12:57:48.864Z,25.52
2018-10-07T13:00:18.737Z,25.73
2018-10-07T13:02:48.642Z,25.62
2018-10-07T13:05:18.765Z,25.62
2018-10-07T13:07:49.036Z,25.87
2018-10-07T13:10:18.997Z,26.04
2018-10-07T13:12:48.917Z,25.80
2018-10-07T13:15:18.718Z,25.80
2018-10-07T13:17:48.799Z,26.02
2018-10-07T13:20:18.623Z,26.26
2018-10-07T13:22:48.724Z,26.41
2018-10-07T13:25:18.685Z,26.11
2018-10-07T13:27:48.825Z,26.23
2018-10-07T13:30:18.843Z,26.09
2018-10-07T13:32:48.667Z,25.93
2018-10-07T13:35:18.837Z,25.89
2018-10-07T13:37:48.777Z,25.81
2018-10-07T13:40:19.212Z,25.85
2018-10-07T13:42:49.152Z,26.03
2018-10-07T13:45:19.045Z,26.10
2018-10-07T13:47:48.928Z,25.63
2018-10-07T13:50:18.846Z,25.25
2018-10-07T13:52:48.730Z,25.38
2018-10-07T13:55:19.465Z,25.59
2018-10-07T13:57:49.894Z,25.65
2018-10-07T14:00:19.806Z,25.63
2018-10-07T14:02:49.888Z,25.43
2018-10-07T14:05:19.912Z,25.41
2018-10-07T14:07:50.013Z,25.56
2018-10-07T14:10:19.899Z,25.44
2018-10-07T14:12:49.901Z,24.63
2018-10-07T14:15:19.921Z,23.94
2018-10-07T14:17:49.826Z,24.03
2018-10-07T14:20:19.869Z,23.91
2018-10-07T14:22:49.913Z,23.87
2018-10-07T14:25:19.797Z,23.99
2018-10-07T14:27:49.928Z,24.31
2018-10-07T14:30:25.438Z,24.55
2018-10-07T14:32:55.549Z,24.37
2018-10-07T14:35:25.580Z,24.36
2018-10-07T14:37:55.645Z,24.32
2018-10-07T14:40:25.615Z,24.20
2018-10-07T14:42:55.590Z,23.90
2018-10-07T14:45:25.758Z,23.31
2018-10-07T14:47:56.068Z,22.93
2018-10-07T14:50:26.509Z,22.79
2018-10-07T14:52:58.161Z,22.19
2018-10-07T14:55:28.030Z,22.15
2018-10-07T14:57:58.509Z,21.69
2018-10-07T15:00:28.489Z,21.66
2018-10-07T15:02:58.530Z,21.29
2018-10-07T15:05:28.452Z,21.39
2018-10-07T15:07:58.317Z,21.22
2018-10-07T15:10:28.263Z,20.91
2018-10-07T15:12:58.209Z,20.89
2018-10-07T15:15:28.011Z,20.77
2018-10-07T15:17:57.756Z,20.52
2018-10-07T15:20:27.730Z,20.38
2018-10-07T15:22:57.506Z,20.50
2018-10-07T15:25:27.340Z,20.14
2018-10-07T15:27:57.545Z,19.72
2018-10-07T15:30:27.322Z,19.72
2018-10-07T15:32:57.790Z,19.40
2018-10-07T15:35:28.572Z,18.88
2018-10-07T15:37:59.698Z,19.06
2018-10-07T15:40:30.524Z,19.10
2018-10-07T15:43:01.517Z,19.32
2018-10-07T15:45:32.326Z,19.10
2018-10-07T15:48:03.933Z,18.53
2018-10-07T15:50:34.752Z,18.68
2018-10-07T15:53:05.786Z,18.62
2018-10-07T15:55:36.744Z,18.27
2018-10-07T15:58:07.860Z,17.58
2018-10-07T16:00:38.765Z,17.73
2018-10-07T16:03:09.986Z,17.47
2018-10-07T16:05:40.646Z,17.24
2018-10-07T16:08:11.534Z,17.19
2018-10-07T16:10:42.497Z,17.14
2018-10-07T16:13:13.597Z,17.24
2018-10-07T16:15:44.456Z,17.19
2018-10-07T16:18:15.884Z,17.39
2018-10-07T16:20:46.855Z,17.22
2018-10-07T16:23:18.115Z,16.95
2018-10-07T16:25:48.545Z,16.75
2018-10-07T16:28:19.599Z,16.40
2018-10-07T16:30:50.596Z,16.48
2018-10-07T16:33:21.811Z,16.61
2018-10-07T16:35:53.431Z,16.52
2018-10-07T16:38:23.399Z,16.31
2018-10-07T16:40:54.954Z,16.39
2018-10-07T16:43:26.554Z,16.09
2018-10-07T16:45:57.133Z,16.13
2018-10-07T16:48:29.583Z,15.92
2018-10-07T16:50:59.409Z,15.71
2018-10-07T16:53:32.804Z,15.52
2018-10-07T16:56:05.505Z,15.72
2018-10-07T16:58:37.750Z,15.63
2018-10-07T17:01:10.560Z,15.73
2018-10-07T17:03:40.837Z,15.71
2018-10-07T17:06:20.836Z,15.68
2018-10-07T17:08:51.915Z,15.47
2018-10-07T17:11:21.894Z,15.45
2018-10-07T17:13:53.081Z,15.38
2018-10-07T17:16:27.190Z,15.18
2018-10-07T17:21:32.213Z,14.97
2018-10-07T17:24:04.035Z,14.73
2018-10-07T17:26:33.900Z,14.62
2018-10-07T17:29:04.045Z,14.83
2018-10-07T17:31:35.363Z,14.94
2018-10-07T17:34:06.536Z,14.97
2018-10-07T17:36:38.604Z,14.82
2018-10-07T17:39:13.939Z,14.66
2018-10-07T17:41:43.861Z,14.60
2018-10-07T17:44:19.083Z,14.64
2018-10-07T17:46:48.912Z,14.75
2018-10-07T17:49:25.155Z,14.65
2018-10-07T17:51:57.113Z,14.75
2018-10-07T17:54:28.304Z,14.54
2018-10-07T17:56:59.709Z,14.29
2018-10-07T17:59:30.542Z,14.20
2018-10-07T18:02:01.461Z,14.18
2018-10-07T18:04:34.518Z,14.16
2018-10-07T18:07:06.413Z,14.34
2018-10-07T18:09:38.475Z,14.31
2018-10-07T18:12:09.492Z,14.40
2018-10-07T18:14:45.210Z,14.35
2018-10-07T18:17:15.386Z,14.31
2018-10-07T18:19:51.033Z,14.24
2018-10-07T18:22:21.111Z,14.43
2018-10-07T18:24:51.793Z,14.39
2018-10-07T18:27:25.120Z,14.25
2018-10-07T18:35:05.763Z,14.24
2018-10-07T18:37:38.515Z,14.37
2018-10-07T18:42:44.035Z,14.30
2018-10-07T18:49:51.065Z,14.34
2018-10-07T18:52:21.068Z,14.28
2018-10-07T18:54:50.914Z,14.27
2018-10-07T18:57:26.001Z,14.28
2018-10-07T18:59:55.891Z,14.35
2018-10-07T19:02:28.129Z,14.37
2018-10-07T19:05:00.261Z,14.35
2018-10-07T19:07:30.167Z,14.07
2018-10-07T19:09:59.985Z,13.94
2018-10-07T19:12:29.987Z,13.87
2018-10-07T19:14:59.905Z,13.99
2018-10-07T19:17:30.232Z,13.99
2018-10-07T19:20:02.205Z,13.97
2018-10-07T19:22:32.446Z,13.87
2018-10-07T19:25:03.684Z,13.67
2018-10-07T19:27:33.620Z,13.75
2018-10-07T19:30:05.414Z,13.75
2018-10-07T19:32:36.053Z,13.79
2018-10-07T19:35:05.976Z,13.82
2018-10-07T19:37:35.781Z,13.86
2018-10-07T19:40:05.654Z,13.88
2018-10-07T19:42:35.656Z,13.79
2018-10-07T19:45:06.011Z,13.84
2018-10-07T19:47:35.851Z,13.78
2018-10-07T19:50:05.838Z,13.69
2018-10-07T19:52:35.631Z,13.66
2018-10-07T19:55:05.522Z,13.55
2018-10-07T19:57:35.500Z,13.35
2018-10-07T20:00:05.720Z,13.38
2018-10-07T20:02:35.548Z,13.23
2018-10-07T20:05:05.572Z,13.14
2018-10-07T20:07:35.601Z,13.20
2018-10-07T20:10:05.813Z,13.17
2018-10-07T20:12:36.013Z,13.14
2018-10-07T20:15:06.074Z,13.11
2018-10-07T20:17:35.993Z,13.12
2018-10-07T20:20:06.324Z,13.05
2018-10-07T20:22:36.573Z,12.92
2018-10-07T20:25:06.591Z,12.94
2018-10-07T20:27:36.503Z,12.90
2018-10-07T20:30:06.684Z,12.82
2018-10-07T20:32:36.750Z,12.86
2018-10-07T20:35:06.748Z,12.88
2018-10-07T20:37:36.644Z,12.87
2018-10-07T20:40:06.830Z,12.78
2018-10-07T20:42:36.985Z,12.82
2018-10-07T20:45:06.872Z,12.82
2018-10-07T20:47:36.692Z,12.81
2018-10-07T20:51:09.709Z,12.78
2018-10-07T20:53:39.654Z,12.66
2018-10-07T20:56:09.758Z,12.69
2018-10-07T20:58:39.618Z,12.72
2018-10-07T21:01:09.634Z,12.70
2018-10-07T21:03:39.536Z,12.71
2018-10-07T21:06:09.659Z,12.73
2018-10-07T21:08:39.758Z,12.74
2018-10-07T21:11:09.577Z,12.76
2018-10-07T21:13:39.945Z,12.75
2018-10-07T21:16:09.820Z,12.74
2018-10-07T21:18:39.712Z,12.75
2018-10-07T21:21:09.590Z,12.75
2018-10-07T21:23:39.680Z,12.75
2018-10-07T21:26:10.189Z,12.73
2018-10-07T21:28:40.022Z,12.72
2018-10-07T21:31:10.109Z,12.70
2018-10-07T21:33:39.931Z,12.70
2018-10-07T21:36:09.779Z,12.67
2018-10-07T21:38:39.608Z,12.66
2018-10-07T21:41:09.600Z,12.63
2018-10-07T21:43:39.966Z,12.59
2018-10-07T21:46:09.766Z,12.56
2018-10-07T21:48:39.576Z,12.52
2018-10-07T21:51:10.296Z,12.50
2018-10-07T21:53:40.260Z,12.46
2018-10-07T21:56:10.423Z,12.42
2018-10-07T21:58:40.634Z,12.39
2018-10-07T22:01:10.560Z,12.37
2018-10-07T22:03:40.633Z,12.32
2018-10-07T22:06:10.514Z,12.29
2018-10-07T22:08:40.646Z,12.24
2018-10-07T22:11:10.705Z,12.22
2018-10-07T22:13:40.598Z,12.19
2018-10-07T22:16:10.720Z,12.15
2018-10-07T22:18:40.478Z,12.11
2018-10-07T22:21:10.784Z,12.11
2018-10-07T22:23:40.650Z,12.08
2018-10-07T22:26:10.781Z,12.08
2018-10-07T22:28:40.821Z,12.08
2018-10-07T22:31:10.668Z,12.08
2018-10-07T22:33:40.730Z,12.06
2018-10-07T22:36:10.605Z,12.06
2018-10-07T22:38:40.645Z,12.07
2018-10-07T22:41:10.762Z,12.06
2018-10-07T22:43:40.828Z,12.04
2018-10-07T22:46:10.794Z,12.02
2018-10-07T22:48:40.689Z,11.94
2018-10-07T22:51:10.539Z,12.02
2018-10-07T22:53:40.557Z,12.02
2018-10-07T22:56:10.594Z,11.99
2018-10-07T22:58:41.689Z,11.99
2018-10-07T23:01:11.542Z,11.97
2018-10-07T23:03:41.566Z,11.96
2018-10-07T23:06:11.577Z,11.97
2018-10-07T23:08:41.638Z,11.56
2018-10-07T23:11:11.649Z,11.96
2018-10-07T23:13:42.080Z,11.92
2018-10-07T23:16:11.936Z,11.93
2018-10-07T23:18:41.853Z,11.95
2018-10-07T23:21:11.633Z,11.93
2018-10-07T23:23:50.789Z,11.91
2018-10-07T23:26:20.716Z,11.92
2018-10-07T23:28:50.649Z,11.91
2018-10-07T23:31:20.616Z,11.92
2018-10-07T23:33:50.518Z,11.92
2018-10-07T23:36:20.637Z,11.92
2018-10-07T23:38:50.458Z,11.93
2018-10-07T23:41:20.910Z,11.93
2018-10-07T23:43:50.783Z,11.95
2018-10-07T23:46:20.537Z,11.95
2018-10-07T23:48:50.766Z,11.94
2018-10-07T23:51:20.611Z,11.95
2018-10-07T23:53:50.670Z,11.94
2018-10-07T23:56:20.666Z,11.93
2018-10-07T23:58:50.813Z,11.93
